createdAt,value
2023-02-12T00:01:17.449Z,8.35
2023-02-12T00:03:44.814Z,8.00
2023-02-12T00:06:15.457Z,8.57
2023-02-12T00:08:43.140Z,8.15
2023-02-12T00:11:17.505Z,8.15
2023-02-12T00:13:45.122Z,8.15
2023-02-12T00:16:14.132Z,7.72
2023-02-12T00:18:41.575Z,8.23
2023-02-12T00:21:09.073Z,9.20
2023-02-12T00:23:37.019Z,8.63
2023-02-12T00:26:11.432Z,8.52
2023-02-12T00:28:42.350Z,8.18
2023-02-12T00:31:14.100Z,9.05
2023-02-12T00:33:41.715Z,8.35
2023-02-12T00:36:09.540Z,8.27
2023-02-12T00:38:36.728Z,8.60
2023-02-12T00:41:04.136Z,8.48
2023-02-12T00:43:31.360Z,9.00
2023-02-12T00:45:59.028Z,8.88
2023-02-12T00:48:27.402Z,8.38
2023-02-12T00:50:54.657Z,8.57
2023-02-12T00:53:21.998Z,8.85
2023-02-12T00:55:49.386Z,8.88
2023-02-12T00:58:19.752Z,8.95
2023-02-12T01:00:47.074Z,8.88
2023-02-12T01:03:14.584Z,8.48
2023-02-12T01:05:41.872Z,8.95
2023-02-12T01:08:09.178Z,9.07
2023-02-12T01:10:36.423Z,9.13
2023-02-12T01:13:03.692Z,8.73
2023-02-12T01:15:30.936Z,8.77
2023-02-12T01:17:58.309Z,8.98
2023-02-12T01:20:25.869Z,8.02
2023-02-12T01:22:53.610Z,9.18
2023-02-12T01:25:21.053Z,8.95
2023-02-12T01:27:48.462Z,9.75
2023-02-12T01:30:16.575Z,9.50
2023-02-12T01:32:44.423Z,9.32
2023-02-12T01:35:11.808Z,9.65
2023-02-12T01:37:41.388Z,8.77
2023-02-12T01:40:10.243Z,9.18
2023-02-12T01:42:37.545Z,8.93
2023-02-12T01:45:14.039Z,8.85
2023-02-12T01:47:41.985Z,9.85
2023-02-12T01:50:10.321Z,9.35
2023-02-12T01:52:38.819Z,9.80
2023-02-12T01:55:08.649Z,8.73
2023-02-12T01:57:38.411Z,9.68
2023-02-12T02:00:08.099Z,9.70
2023-02-12T02:02:41.207Z,9.80
2023-02-12T02:05:08.696Z,8.70
2023-02-12T02:07:35.965Z,9.35
2023-02-12T02:10:04.460Z,9.52
2023-02-12T02:12:50.677Z,9.20
2023-02-12T02:15:17.930Z,9.07
2023-02-12T02:18:00.284Z,9.93
2023-02-12T02:20:27.619Z,9.05
2023-02-12T02:23:17.749Z,9.82
2023-02-12T02:26:03.866Z,9.13
2023-02-12T02:28:54.415Z,9.15
2023-02-12T02:31:27.659Z,8.65
2023-02-12T02:34:04.363Z,9.60
2023-02-12T02:37:00.250Z,9.82
2023-02-12T02:39:38.827Z,10.23
2023-02-12T02:42:06.207Z,9.48
2023-02-12T02:44:36.278Z,10.18
2023-02-12T02:47:06.055Z,9.57
2023-02-12T02:49:37.168Z,9.18
2023-02-12T02:52:06.210Z,9.50
2023-02-12T02:54:35.504Z,9.38
2023-02-12T02:57:08.940Z,9.70
2023-02-12T02:59:38.916Z,9.73
2023-02-12T03:02:28.039Z,10.07
2023-02-12T03:05:07.548Z,9.93
2023-02-12T03:07:39.575Z,10.05
2023-02-12T03:10:10.913Z,10.25
2023-02-12T03:12:41.847Z,10.27
2023-02-12T03:15:21.784Z,10.45
2023-02-12T03:17:49.791Z,11.27
2023-02-12T03:20:19.425Z,11.00
2023-02-12T03:22:52.098Z,10.88
2023-02-12T03:25:22.243Z,10.13
2023-02-12T03:28:15.973Z,10.65
2023-02-12T03:30:48.485Z,10.40
2023-02-12T03:33:24.393Z,11.07
2023-02-12T03:36:08.331Z,10.85
2023-02-12T03:38:35.614Z,10.00
2023-02-12T03:41:10.189Z,10.57
2023-02-12T03:43:50.347Z,11.38
2023-02-12T03:46:24.003Z,11.63
2023-02-12T03:48:57.322Z,10.25
2023-02-12T03:51:28.953Z,11.63
2023-02-12T03:53:56.847Z,11.63
2023-02-12T03:56:33.797Z,11.27
2023-02-12T03:59:01.078Z,11.25
2023-02-12T04:01:28.584Z,11.05
2023-02-12T04:03:56.577Z,10.75
2023-02-12T04:06:25.806Z,10.55
2023-02-12T04:08:53.794Z,11.13
2023-02-12T04:11:30.476Z,11.30
2023-02-12T04:14:17.946Z,11.25
2023-02-12T04:16:51.842Z,11.73
2023-02-12T04:19:26.530Z,11.85
2023-02-12T04:22:06.077Z,11.52
2023-02-12T04:24:41.662Z,12.13
2023-02-12T04:27:12.763Z,11.82
2023-02-12T04:29:56.323Z,12.10
2023-02-12T04:32:23.490Z,12.02
2023-02-12T04:35:03.758Z,11.70
2023-02-12T04:37:39.890Z,12.20
2023-02-12T04:40:08.660Z,12.68
2023-02-12T04:42:45.719Z,11.20
2023-02-12T04:45:14.660Z,11.45
2023-02-12T04:47:41.893Z,11.48
2023-02-12T04:50:09.515Z,11.88
2023-02-12T04:52:36.742Z,11.95
2023-02-12T04:55:04.034Z,12.20
2023-02-12T04:57:31.276Z,12.13
2023-02-12T04:59:58.479Z,11.95
2023-02-12T05:02:25.728Z,11.32
2023-02-12T05:04:53.093Z,11.52
2023-02-12T05:07:20.357Z,11.73
2023-02-12T05:09:47.590Z,12.07
2023-02-12T05:12:14.872Z,11.82
2023-02-12T05:14:42.133Z,11.85
2023-02-12T05:17:09.438Z,11.77
2023-02-12T05:19:36.830Z,12.05
2023-02-12T05:22:04.113Z,11.73
2023-02-12T05:24:31.363Z,12.10
2023-02-12T05:26:58.605Z,11.73
2023-02-12T05:29:25.841Z,12.27
2023-02-12T05:31:53.177Z,11.88
2023-02-12T05:34:20.505Z,11.95
2023-02-12T05:36:47.743Z,11.63
2023-02-12T05:39:15.004Z,11.68
2023-02-12T05:41:42.285Z,11.77
2023-02-12T05:44:12.016Z,11.57
2023-02-12T05:46:39.600Z,11.48
2023-02-12T05:49:07.025Z,11.77
2023-02-12T05:51:34.231Z,11.95
2023-02-12T05:54:03.731Z,11.57
2023-02-12T05:59:03.493Z,11.13
2023-02-12T06:01:38.180Z,10.48
2023-02-12T06:04:07.241Z,10.88
2023-02-12T06:06:35.163Z,12.05
2023-02-12T06:09:02.480Z,10.85
2023-02-12T06:11:29.747Z,11.45
2023-02-12T06:13:57.004Z,11.55
2023-02-12T06:16:25.798Z,11.73
2023-02-12T06:18:53.377Z,10.57
2023-02-12T06:21:21.343Z,10.35
2023-02-12T06:23:48.998Z,11.05
2023-02-12T06:26:17.169Z,11.40
2023-02-12T06:28:44.921Z,11.18
2023-02-12T06:31:19.485Z,10.73
2023-02-12T06:33:46.964Z,10.63
2023-02-12T06:36:14.369Z,10.75
2023-02-12T06:38:41.688Z,10.63
2023-02-12T06:41:08.934Z,9.85
2023-02-12T06:43:36.427Z,9.93
2023-02-12T06:46:04.259Z,10.07
2023-02-12T06:48:31.722Z,10.38
2023-02-12T06:51:10.957Z,10.43
2023-02-12T06:53:38.367Z,9.93
2023-02-12T06:56:06.943Z,10.18
2023-02-12T06:58:34.187Z,9.80
2023-02-12T07:01:21.583Z,10.05
2023-02-12T07:03:50.213Z,10.05
2023-02-12T07:06:17.908Z,9.90
2023-02-12T07:08:45.222Z,10.07
2023-02-12T07:11:12.748Z,10.15
2023-02-12T07:13:41.615Z,9.70
2023-02-12T07:16:10.066Z,9.20
2023-02-12T07:18:37.787Z,10.15
2023-02-12T07:21:05.550Z,10.35
2023-02-12T07:23:33.339Z,10.70
2023-02-12T07:26:02.827Z,10.88
2023-02-12T07:31:01.846Z,9.75
2023-02-12T07:33:29.140Z,10.27
2023-02-12T07:35:56.637Z,10.98
2023-02-12T07:38:24.097Z,10.02
2023-02-12T07:40:51.362Z,10.32
2023-02-12T07:43:18.596Z,10.90
2023-02-12T07:45:45.876Z,11.80
2023-02-12T07:48:13.129Z,10.82
2023-02-12T07:50:40.351Z,11.38
2023-02-12T07:53:07.575Z,10.85
2023-02-12T07:55:34.825Z,11.10
2023-02-12T07:58:02.025Z,10.70
2023-02-12T08:00:29.308Z,10.65
2023-02-12T08:02:56.576Z,10.70
2023-02-12T08:05:23.819Z,11.95
2023-02-12T08:07:51.047Z,11.18
2023-02-12T08:10:22.243Z,11.93
2023-02-12T08:12:49.454Z,11.75
2023-02-12T08:15:17.102Z,11.27
2023-02-12T08:17:44.370Z,12.02
2023-02-12T08:20:11.817Z,11.20
2023-02-12T08:22:39.075Z,10.77
2023-02-12T08:25:06.525Z,10.57
2023-02-12T08:27:33.712Z,11.05
2023-02-12T08:30:00.969Z,10.15
2023-02-12T08:32:29.376Z,10.75
2023-02-12T08:34:56.596Z,10.25
2023-02-12T08:37:23.914Z,11.23
2023-02-12T08:39:51.168Z,10.23
2023-02-12T08:42:18.434Z,10.80
2023-02-12T08:44:45.644Z,10.27
2023-02-12T08:47:12.886Z,10.55
2023-02-12T08:49:40.294Z,10.30
2023-02-12T08:52:07.577Z,10.10
2023-02-12T08:54:34.834Z,9.68
2023-02-12T08:57:03.668Z,10.27
2023-02-12T08:59:30.918Z,9.75
2023-02-12T09:01:58.228Z,10.32
2023-02-12T09:04:26.490Z,10.20
2023-02-12T09:06:54.082Z,10.65
2023-02-12T09:09:22.279Z,10.10
2023-02-12T09:11:49.716Z,9.48
2023-02-12T09:14:18.653Z,10.20
2023-02-12T09:16:46.246Z,8.93
2023-02-12T09:19:14.314Z,9.45
2023-02-12T09:21:41.934Z,8.68
2023-02-12T09:24:09.685Z,9.88
2023-02-12T09:26:37.008Z,9.23
2023-02-12T09:29:05.115Z,9.75
2023-02-12T09:31:32.965Z,9.05
2023-02-12T09:34:04.097Z,9.23
2023-02-12T09:36:31.951Z,8.95
2023-02-12T09:38:59.869Z,8.98
2023-02-12T09:41:45.918Z,8.70
2023-02-12T09:44:21.587Z,9.38
2023-02-12T09:46:52.182Z,9.65
2023-02-12T09:49:24.634Z,9.25
2023-02-12T09:51:54.817Z,9.13
2023-02-12T09:54:23.891Z,8.15
2023-02-12T09:56:56.126Z,8.63
2023-02-12T09:59:46.741Z,7.90
2023-02-12T10:02:17.933Z,7.45
2023-02-12T10:05:00.185Z,8.38
2023-02-12T10:07:41.234Z,9.20
2023-02-12T10:10:11.633Z,9.18
2023-02-12T10:12:38.902Z,9.52
2023-02-12T10:15:24.768Z,9.00
2023-02-12T10:18:09.197Z,9.20
2023-02-12T10:20:36.697Z,9.50
2023-02-12T10:23:10.745Z,9.23
2023-02-12T10:25:52.921Z,8.82
2023-02-12T10:28:29.308Z,9.25
2023-02-12T10:30:56.704Z,9.10
2023-02-12T10:33:26.949Z,10.13
2023-02-12T10:35:58.031Z,8.73
2023-02-12T10:38:31.049Z,8.75
2023-02-12T10:41:01.800Z,8.55
2023-02-12T10:43:29.483Z,8.88
2023-02-12T10:45:57.355Z,15.00
2023-02-12T10:48:33.418Z,17.13
2023-02-12T10:51:12.820Z,16.13
2023-02-12T10:53:44.093Z,15.57
2023-02-12T10:56:14.773Z,15.55
2023-02-12T10:58:51.024Z,13.98
2023-02-12T11:01:25.950Z,13.18
2023-02-12T11:03:54.240Z,12.75
2023-02-12T11:06:26.371Z,11.82
2023-02-12T11:08:53.627Z,10.15
2023-02-12T11:11:22.707Z,11.77
2023-02-12T11:14:01.513Z,11.43
2023-02-12T11:16:33.845Z,10.77
2023-02-12T11:19:06.488Z,10.48
2023-02-12T11:21:34.186Z,10.40
2023-02-12T11:24:21.382Z,11.10
2023-02-12T11:26:48.708Z,10.82
2023-02-12T11:29:26.300Z,10.75
2023-02-12T11:32:10.432Z,11.15
2023-02-12T11:34:37.907Z,10.75
2023-02-12T11:37:05.289Z,10.80
2023-02-12T11:39:32.551Z,10.88
2023-02-12T11:42:20.535Z,10.73
2023-02-12T11:44:52.258Z,10.98
2023-02-12T11:47:22.134Z,9.88
2023-02-12T11:49:50.495Z,10.55
2023-02-12T11:52:22.408Z,10.73
2023-02-12T11:54:51.129Z,11.02
2023-02-12T11:57:37.301Z,10.65
2023-02-12T12:00:06.710Z,11.07
2023-02-12T12:02:39.078Z,10.73
2023-02-12T12:05:10.319Z,10.93
2023-02-12T12:07:39.967Z,10.60
2023-02-12T12:10:19.506Z,10.65
2023-02-12T12:12:53.742Z,10.88
2023-02-12T12:15:46.099Z,11.50
2023-02-12T12:18:34.879Z,10.18
2023-02-12T12:21:04.352Z,10.32
2023-02-12T12:26:02.564Z,9.85
2023-02-12T12:28:41.460Z,10.38
2023-02-12T12:31:17.968Z,9.80
2023-02-12T12:33:48.440Z,9.85
2023-02-12T12:36:35.519Z,9.93
2023-02-12T12:39:02.762Z,10.15
2023-02-12T12:41:49.816Z,10.52
2023-02-12T12:44:20.126Z,9.32
2023-02-12T12:47:10.018Z,9.95
2023-02-12T12:49:40.028Z,8.98
2023-02-12T12:52:19.627Z,9.35
2023-02-12T12:54:46.851Z,9.23
2023-02-12T12:57:23.358Z,8.30
2023-02-12T13:00:00.639Z,8.52
2023-02-12T13:02:38.207Z,9.00
2023-02-12T13:05:34.961Z,8.60
2023-02-12T13:08:02.256Z,8.25
2023-02-12T13:10:32.620Z,9.00
2023-02-12T13:13:15.141Z,8.15
2023-02-12T13:15:46.885Z,8.07
2023-02-12T13:18:26.184Z,8.65
2023-02-12T13:21:12.449Z,8.80
2023-02-12T13:23:43.583Z,8.80
2023-02-12T13:26:22.506Z,8.85
2023-02-12T13:28:55.759Z,7.80
2023-02-12T13:31:33.018Z,8.40
2023-02-12T13:34:02.534Z,8.65
2023-02-12T13:36:29.940Z,8.55
2023-02-12T13:38:59.266Z,7.97
2023-02-12T13:41:27.211Z,8.30
2023-02-12T13:43:54.388Z,8.35
2023-02-12T13:46:21.655Z,7.80
2023-02-12T13:49:27.519Z,8.48
2023-02-12T13:51:58.461Z,8.38
2023-02-12T13:54:34.376Z,7.38
2023-02-12T13:59:32.015Z,8.32
2023-02-12T14:02:00.037Z,9.90
2023-02-12T14:04:33.391Z,8.73
2023-02-12T14:07:06.589Z,9.10
2023-02-12T14:09:47.726Z,7.38
2023-02-12T14:12:21.054Z,8.15
2023-02-12T14:14:50.908Z,8.23
2023-02-12T14:17:33.332Z,9.55
2023-02-12T14:22:27.788Z,8.15
2023-02-12T14:24:59.253Z,9.48
2023-02-12T14:27:32.741Z,9.50
2023-02-12T14:30:05.712Z,9.18
2023-02-12T14:32:59.391Z,9.30
2023-02-12T14:35:26.981Z,8.65
2023-02-12T14:37:58.725Z,9.27
2023-02-12T14:40:35.248Z,9.77
2023-02-12T14:43:22.454Z,9.07
2023-02-12T14:45:49.972Z,8.75
2023-02-12T14:48:35.997Z,8.77
2023-02-12T14:51:03.487Z,8.75
2023-02-12T14:53:32.523Z,8.48
2023-02-12T14:56:00.791Z,7.85
2023-02-12T14:58:31.028Z,8.65
2023-02-12T15:01:00.096Z,8.27
2023-02-12T15:03:33.580Z,8.50
2023-02-12T15:06:13.120Z,8.55
2023-02-12T15:08:55.150Z,8.50
2023-02-12T15:11:34.600Z,7.93
2023-02-12T15:14:20.730Z,7.70
2023-02-12T15:17:00.258Z,9.07
2023-02-12T15:19:40.535Z,8.30
2023-02-12T15:22:18.378Z,8.10
2023-02-12T15:24:46.892Z,8.90
2023-02-12T15:27:15.762Z,7.60
2023-02-12T15:29:45.904Z,8.68
2023-02-12T15:32:32.100Z,7.22
2023-02-12T15:34:59.436Z,9.30
2023-02-12T15:37:31.433Z,8.38
2023-02-12T15:40:01.017Z,7.85
2023-02-12T15:42:31.357Z,8.55
2023-02-12T15:45:06.777Z,8.00
2023-02-12T15:47:34.761Z,7.88
2023-02-12T15:50:01.991Z,8.90
2023-02-12T15:52:34.777Z,9.05
2023-02-12T15:55:03.139Z,7.63
2023-02-12T15:57:30.380Z,8.23
2023-02-12T16:00:01.365Z,8.20
2023-02-12T16:02:29.956Z,8.50
2023-02-12T16:04:57.707Z,9.10
2023-02-12T16:07:25.608Z,8.63
2023-02-12T16:09:54.045Z,8.48
2023-02-12T16:12:23.366Z,8.45
2023-02-12T16:14:53.351Z,9.80
2023-02-12T16:17:22.243Z,9.13
2023-02-12T16:19:59.696Z,8.35
2023-02-12T16:22:28.794Z,8.75
2023-02-12T16:24:56.617Z,8.88
2023-02-12T16:27:26.038Z,8.05
2023-02-12T16:32:31.579Z,8.57
2023-02-12T16:35:00.022Z,9.07
2023-02-12T16:37:47.879Z,9.18
2023-02-12T16:40:18.195Z,9.23
2023-02-12T16:42:48.739Z,9.00
2023-02-12T16:45:26.440Z,9.23
2023-02-12T16:48:04.132Z,9.00
2023-02-12T16:50:33.148Z,9.05
2023-02-12T16:53:01.452Z,8.52
2023-02-12T16:55:28.727Z,8.80
2023-02-12T16:57:56.018Z,7.95
2023-02-12T17:00:23.962Z,8.85
2023-02-12T17:02:51.405Z,8.18
2023-02-12T17:05:19.166Z,8.82
2023-02-12T17:07:46.478Z,8.63
2023-02-12T17:10:14.505Z,8.82
2023-02-12T17:12:48.569Z,8.30
2023-02-12T17:15:25.463Z,8.68
2023-02-12T17:17:52.808Z,8.48
2023-02-12T17:20:20.124Z,8.43
2023-02-12T17:22:55.105Z,8.57
2023-02-12T17:25:22.343Z,8.27
2023-02-12T17:27:49.706Z,9.65
2023-02-12T17:30:17.906Z,9.32
2023-02-12T17:32:45.216Z,9.10
2023-02-12T17:35:12.563Z,9.55
2023-02-12T17:37:39.867Z,9.27
2023-02-12T17:40:11.668Z,9.32
2023-02-12T17:42:39.114Z,8.52
2023-02-12T17:45:07.212Z,9.80
2023-02-12T17:47:39.762Z,9.38
2023-02-12T17:50:11.328Z,9.35
2023-02-12T17:52:38.687Z,9.43
2023-02-12T17:55:06.216Z,10.02
2023-02-12T17:57:33.702Z,9.13
2023-02-12T18:00:00.920Z,9.70
2023-02-12T18:02:28.140Z,10.05
2023-02-12T18:04:55.331Z,10.40
2023-02-12T18:07:22.549Z,10.50
2023-02-12T18:09:49.758Z,9.43
2023-02-12T18:12:17.058Z,9.43
2023-02-12T18:14:44.357Z,11.80
2023-02-12T18:17:11.664Z,11.98
2023-02-12T18:19:38.972Z,11.23
2023-02-12T18:22:06.307Z,11.18
2023-02-12T18:24:35.053Z,11.35
2023-02-12T18:27:02.314Z,11.27
2023-02-12T18:29:29.569Z,11.43
2023-02-12T18:31:57.236Z,11.60
2023-02-12T18:34:25.466Z,11.10
2023-02-12T18:36:52.907Z,10.93
2023-02-12T18:39:20.223Z,10.45
2023-02-12T18:41:47.745Z,11.10
2023-02-12T18:44:15.552Z,11.10
2023-02-12T18:46:42.874Z,10.32
2023-02-12T18:49:10.243Z,11.05
2023-02-12T18:51:42.720Z,10.40
2023-02-12T18:54:12.275Z,10.70
2023-02-12T18:56:41.168Z,11.07
2023-02-12T18:59:08.903Z,10.88
2023-02-12T19:01:36.850Z,11.07
2023-02-12T19:04:05.243Z,10.50
2023-02-12T19:06:34.096Z,10.50
2023-02-12T19:09:03.205Z,10.57
2023-02-12T19:11:31.290Z,11.18
2023-02-12T19:13:59.025Z,10.32
2023-02-12T19:16:27.610Z,10.80
2023-02-12T19:18:55.985Z,11.20
2023-02-12T19:21:26.239Z,10.98
2023-02-12T19:23:54.933Z,10.90
2023-02-12T19:26:22.717Z,11.45
2023-02-12T19:28:50.108Z,11.20
2023-02-12T19:31:21.679Z,11.27
2023-02-12T19:33:49.933Z,12.18
2023-02-12T19:36:18.977Z,11.85
2023-02-12T19:38:48.384Z,10.73
2023-02-12T19:41:16.950Z,12.60
2023-02-12T19:43:44.702Z,12.20
2023-02-12T19:46:16.794Z,12.38
2023-02-12T19:48:44.651Z,12.68
2023-02-12T19:51:19.324Z,12.63
2023-02-12T19:53:47.288Z,12.50
2023-02-12T19:56:14.920Z,12.90
2023-02-12T19:58:42.644Z,13.20
2023-02-12T20:01:11.606Z,13.20
2023-02-12T20:03:38.916Z,13.15
2023-02-12T20:06:09.533Z,12.43
2023-02-12T20:08:39.047Z,13.20
2023-02-12T20:11:10.697Z,14.93
2023-02-12T20:13:38.013Z,13.70
2023-02-12T20:16:09.835Z,13.02
2023-02-12T20:18:37.179Z,13.18
2023-02-12T20:21:11.677Z,13.32
2023-02-12T20:23:39.173Z,13.80
2023-02-12T20:26:07.548Z,12.82
2023-02-12T20:28:35.540Z,12.18
2023-02-12T20:31:13.818Z,12.88
2023-02-12T20:33:41.740Z,13.27
2023-02-12T20:36:09.645Z,12.52
2023-02-12T20:38:38.295Z,12.98
2023-02-12T20:41:08.882Z,13.18
2023-02-12T20:43:36.592Z,13.50
2023-02-12T20:46:17.638Z,13.13
2023-02-12T20:48:44.950Z,13.15
2023-02-12T20:51:17.820Z,12.82
2023-02-12T20:53:45.615Z,13.95
2023-02-12T20:56:17.175Z,13.52
2023-02-12T20:58:45.109Z,14.02
2023-02-12T21:01:17.284Z,13.68
2023-02-12T21:03:45.137Z,13.43
2023-02-12T21:06:12.783Z,14.43
2023-02-12T21:08:40.591Z,14.38
2023-02-12T21:11:15.225Z,13.77
2023-02-12T21:13:50.410Z,14.27
2023-02-12T21:16:28.112Z,13.40
2023-02-12T21:18:55.903Z,13.48
2023-02-12T21:21:27.371Z,13.98
2023-02-12T21:23:56.663Z,13.23
2023-02-12T21:26:25.470Z,14.02
2023-02-12T21:28:53.108Z,14.25
2023-02-12T21:31:22.108Z,13.77
2023-02-12T21:33:50.427Z,13.15
2023-02-12T21:36:19.171Z,13.82
2023-02-12T21:38:48.041Z,13.82
2023-02-12T21:41:26.173Z,13.85
2023-02-12T21:43:54.673Z,13.43
2023-02-12T21:46:25.076Z,14.43
2023-02-12T21:48:53.076Z,14.55
2023-02-12T21:51:27.496Z,14.43
2023-02-12T21:53:56.185Z,14.60
2023-02-12T21:56:24.119Z,14.02
2023-02-12T21:58:51.578Z,13.40
2023-02-12T22:01:20.169Z,13.93
2023-02-12T22:03:47.574Z,13.63
2023-02-12T22:06:17.064Z,15.45
2023-02-12T22:08:44.364Z,15.52
2023-02-12T22:11:12.470Z,15.38
2023-02-12T22:13:39.972Z,15.13
2023-02-12T22:16:16.354Z,15.48
2023-02-12T22:18:44.340Z,14.75
2023-02-12T22:21:13.515Z,14.82
2023-02-12T22:23:41.374Z,15.07
2023-02-12T22:26:16.020Z,15.05
2023-02-12T22:28:44.818Z,13.85
2023-02-12T22:31:13.283Z,14.23
2023-02-12T22:33:40.657Z,14.52
2023-02-12T22:36:09.469Z,14.35
2023-02-12T22:38:37.200Z,13.93
2023-02-12T22:41:05.151Z,14.65
2023-02-12T22:43:33.141Z,14.25
2023-02-12T22:46:00.413Z,15.63
2023-02-12T22:48:28.472Z,14.77
2023-02-12T22:50:56.640Z,14.38
2023-02-12T22:53:24.563Z,14.02
2023-02-12T22:55:51.948Z,14.60
2023-02-12T22:58:19.586Z,13.65
2023-02-12T23:00:46.870Z,14.15
2023-02-12T23:03:14.122Z,13.70
2023-02-12T23:05:41.350Z,14.10
2023-02-12T23:08:08.668Z,13.48
2023-02-12T23:10:35.962Z,15.05
2023-02-12T23:13:03.818Z,15.95
2023-02-12T23:15:32.019Z,14.27
2023-02-12T23:17:59.341Z,13.52
2023-02-12T23:20:26.575Z,14.52
2023-02-12T23:22:53.818Z,14.00
2023-02-12T23:25:21.056Z,13.80
2023-02-12T23:27:48.284Z,14.50
2023-02-12T23:30:15.714Z,13.63
2023-02-12T23:32:42.973Z,13.85
2023-02-12T23:35:10.260Z,14.30
2023-02-12T23:37:37.482Z,13.50
2023-02-12T23:40:04.728Z,13.75
2023-02-12T23:42:32.013Z,13.82
2023-02-12T23:44:59.221Z,13.57
2023-02-12T23:47:26.488Z,13.95
2023-02-12T23:49:53.717Z,13.05
2023-02-12T23:52:21.040Z,13.38
2023-02-12T23:54:48.320Z,13.77
2023-02-12T23:57:15.600Z,13.50
2023-02-12T23:59:43.055Z,12.65
